Time;durP1;ratioP1;P1;durP2;ratioP2;P2;SDS_P1;SDS_P2;PMS_P1;PMS_P2;Temp;Humidity;BMP_temperature;BMP_pressure;BME280_temperature;BME280_humidity;BME280_pressure;Samples;Min_cycle;Max_cycle;Signal;HPM_P1;HPM_P2
2022/07/18 00:02:18;;;;;;;11.95;4.00;;;;;;;16.25;69.45;102331.97;4972863;28;20368;-73
2022/07/18 00:04:43;;;;;;;8.57;3.95;;;;;;;16.30;69.82;102334.28;4971838;28;20113;-71
2022/07/18 00:07:12;;;;;;;9.95;4.40;;;;;;;16.27;69.88;102337.16;4954870;28;20023;-72
2022/07/18 00:09:39;;;;;;;9.48;4.30;;;;;;;16.20;70.47;102330.63;4971711;28;20031;-72
2022/07/18 00:12:07;;;;;;;10.27;3.92;;;;;;;16.13;70.18;102334.69;4971450;28;20486;-73
2022/07/18 00:14:33;;;;;;;11.38;4.15;;;;;;;16.10;70.13;102326.94;4971236;28;20037;-73
2022/07/18 00:16:59;;;;;;;12.00;4.07;;;;;;;16.02;70.48;102327.53;4972065;28;20498;-73
2022/07/18 00:19:25;;;;;;;12.25;4.03;;;;;;;15.96;70.78;102335.91;4970420;28;20026;-73
2022/07/18 00:21:50;;;;;;;9.27;4.65;;;;;;;15.90;70.56;102326.59;4954355;28;20050;-73
2022/07/18 00:24:19;;;;;;;14.18;4.85;;;;;;;15.87;71.00;102326.81;4970546;28;20030;-73
2022/07/18 00:26:44;;;;;;;7.20;4.53;;;;;;;15.95;70.37;102313.81;4971597;28;20022;-73
2022/07/18 00:29:10;;;;;;;9.15;4.43;;;;;;;15.93;70.67;102317.53;4971369;28;20032;-72
2022/07/18 00:31:35;;;;;;;7.85;4.45;;;;;;;15.89;70.83;102316.06;4952880;28;20038;-72
2022/07/18 00:34:01;;;;;;;7.65;4.72;;;;;;;15.80;71.26;102308.78;4971565;28;20026;-72
2022/07/18 00:36:28;;;;;;;9.48;4.40;;;;;;;15.79;71.38;102307.09;4970808;28;20037;-72
2022/07/18 00:38:53;;;;;;;7.88;3.90;;;;;;;15.75;71.85;102303.81;4951983;28;20046;-71
2022/07/18 00:41:18;;;;;;;10.30;3.92;;;;;;;15.79;71.53;102299.13;4951315;29;20395;-72
2022/07/18 00:43:44;;;;;;;7.95;4.07;;;;;;;15.73;71.99;102299.59;4952076;29;20023;-73
2022/07/18 00:46:11;;;;;;;6.97;3.60;;;;;;;15.75;71.92;102300.31;4950985;29;20486;-73
2022/07/18 00:48:39;;;;;;;6.95;3.97;;;;;;;15.70;72.30;102300.66;4951331;29;20031;-73
2022/07/18 00:51:04;;;;;;;9.25;4.20;;;;;;;15.65;72.39;102294.84;4951903;29;20027;-74
2022/07/18 00:53:30;;;;;;;8.98;4.38;;;;;;;15.62;72.60;102298.56;4949786;28;20054;-72
2022/07/18 00:55:55;;;;;;;7.93;4.40;;;;;;;15.56;73.02;102301.59;4950544;28;20050;-71
2022/07/18 00:58:21;;;;;;;6.35;3.90;;;;;;;15.60;72.96;102303.09;4969980;28;20046;-73
2022/07/18 01:03:30;;;;;;;8.65;4.00;;;;;;;15.53;72.93;102298.31;4970382;28;20041;-73
2022/07/18 01:05:55;;;;;;;6.85;3.60;;;;;;;15.55;72.94;102294.59;4971093;28;20031;-72
2022/07/18 01:08:21;;;;;;;8.00;4.22;;;;;;;15.53;72.80;102293.84;4953270;28;20027;-73
2022/07/18 01:10:46;;;;;;;7.63;4.60;;;;;;;15.48;73.02;102296.00;4971378;28;20113;-73
2022/07/18 01:13:12;;;;;;;8.98;4.63;;;;;;;15.47;72.87;102289.00;4971131;28;20395;-73
2022/07/18 01:15:37;;;;;;;7.55;5.20;;;;;;;15.41;73.07;102286.78;4970274;28;20493;-73
2022/07/18 01:18:03;;;;;;;11.43;4.68;;;;;;;15.37;73.03;102287.97;4971328;28;20034;-73
2022/07/18 01:20:30;;;;;;;5.95;4.53;;;;;;;15.40;72.58;102281.59;4970003;28;20026;-72
2022/07/18 01:22:56;;;;;;;11.45;5.28;;;;;;;15.34;72.24;102275.78;4971057;28;20536;-72
2022/07/18 01:25:21;;;;;;;10.23;4.82;;;;;;;15.38;72.29;102281.69;4970648;28;20042;-72
2022/07/18 01:27:47;;;;;;;6.22;4.65;;;;;;;15.33;72.10;102281.19;4970344;28;20019;-73
2022/07/18 01:30:12;;;;;;;9.30;5.25;;;;;;;15.29;72.30;102282.38;4971210;28;20026;-73
2022/07/18 01:32:39;;;;;;;9.38;5.45;;;;;;;15.28;72.24;102284.16;4970927;28;20068;-72
2022/07/18 01:35:04;;;;;;;9.68;4.90;;;;;;;15.33;72.14;102281.19;4970782;28;20377;-72
2022/07/18 01:37:30;;;;;;;8.93;4.95;;;;;;;15.26;72.46;102287.88;4962330;28;20543;-72
2022/07/18 01:39:55;;;;;;;6.13;5.30;;;;;;;15.28;72.16;102280.66;4934667;29;20472;-72
2022/07/18 01:42:21;;;;;;;7.93;5.43;;;;;;;15.23;72.22;102277.50;4950678;29;20074;-74
2022/07/18 01:44:46;;;;;;;11.98;5.50;;;;;;;15.18;72.57;102277.78;4951777;29;20048;-73
2022/07/18 01:47:12;;;;;;;9.00;5.30;;;;;;;15.18;72.29;102285.75;4934658;29;20424;-72
2022/07/18 01:49:38;;;;;;;7.57;5.15;;;;;;;15.10;72.52;102282.78;4950313;29;20027;-73
2022/07/18 01:52:04;;;;;;;10.27;5.57;;;;;;;15.08;72.81;102284.72;4934818;29;20034;-72
2022/07/18 01:54:32;;;;;;;7.03;4.95;;;;;;;15.05;72.96;102287.56;4949348;29;20039;-73
2022/07/18 01:56:59;;;;;;;8.25;4.63;;;;;;;15.09;72.92;102286.41;4958770;28;20471;-72
2022/07/18 01:59:25;;;;;;;8.25;4.93;;;;;;;15.02;73.00;102275.38;4970258;28;20042;-72
2022/07/18 02:01:51;;;;;;;10.68;5.13;;;;;;;15.00;73.01;102276.44;4971334;28;20132;-72
2022/07/18 02:04:17;;;;;;;8.88;5.00;;;;;;;15.00;73.25;102273.81;4952368;28;20066;-71
2022/07/18 02:06:42;;;;;;;7.00;4.70;;;;;;;15.01;73.24;102279.00;4973615;28;20135;-71
2022/07/18 02:09:08;;;;;;;9.35;5.03;;;;;;;14.89;73.41;102274.56;4974144;28;20546;-72
2022/07/18 02:11:35;;;;;;;8.05;5.05;;;;;;;14.86;73.40;102273.91;4972930;28;20029;-72
2022/07/18 02:14:00;;;;;;;8.57;4.82;;;;;;;14.85;73.20;102258.97;4974291;28;20023;-72
2022/07/18 02:16:26;;;;;;;7.85;4.93;;;;;;;14.85;73.28;102262.47;4973257;28;20482;-72
2022/07/18 02:18:51;;;;;;;7.35;4.93;;;;;;;14.81;73.52;102262.75;4973312;28;20042;-72
2022/07/18 02:21:17;;;;;;;9.93;5.40;;;;;;;14.80;73.55;102255.75;4973512;28;20023;-72
2022/07/18 02:23:43;;;;;;;7.78;4.95;;;;;;;14.80;73.40;102259.25;4973736;28;20031;-72
2022/07/18 02:26:10;;;;;;;8.75;5.18;;;;;;;14.69;73.45;102254.72;4972891;28;20101;-72
2022/07/18 02:28:36;;;;;;;7.72;5.38;;;;;;;14.72;73.88;102253.66;4973091;28;20030;-72
2022/07/18 02:31:01;;;;;;;7.82;5.68;;;;;;;14.70;74.16;102258.22;4972598;28;20078;-72
2022/07/18 02:33:26;;;;;;;7.70;5.32;;;;;;;14.66;74.09;102254.06;4972969;28;20085;-72
2022/07/18 02:35:52;;;;;;;8.68;5.20;;;;;;;14.70;73.79;102255.56;4973568;28;20110;-72
2022/07/18 02:38:17;;;;;;;6.00;5.30;;;;;;;14.70;73.71;102247.63;4940283;29;20027;-71
2022/07/18 02:40:42;;;;;;;8.35;5.97;;;;;;;14.69;73.90;102245.91;4953796;29;20490;-71
2022/07/18 02:43:08;;;;;;;11.82;5.40;;;;;;;14.56;74.21;102250.38;4954044;29;20451;-72
2022/07/18 02:45:33;;;;;;;18.65;6.30;;;;;;;14.56;73.71;102242.44;4952576;29;20071;-72
2022/07/18 02:47:59;;;;;;;8.65;5.60;;;;;;;14.50;74.26;102246.34;4921245;29;20479;-72
2022/07/18 02:50:24;;;;;;;6.63;5.88;;;;;;;14.53;74.36;102245.28;4953300;29;20027;-72
2022/07/18 02:52:50;;;;;;;10.57;6.22;;;;;;;14.51;74.41;102244.53;4952807;28;20391;-72
2022/07/18 02:55:18;;;;;;;8.88;5.95;;;;;;;14.49;74.40;102249.09;4935320;29;20511;-72
2022/07/18 02:57:44;;;;;;;10.10;6.22;;;;;;;14.42;74.53;102248.63;4967700;28;20031;-72
2022/07/18 03:00:12;;;;;;;12.10;6.30;;;;;;;14.37;74.74;102248.91;4971965;28;20050;-72
2022/07/18 03:02:38;;;;;;;10.00;6.00;;;;;;;14.41;74.61;102245.16;4972888;28;20122;-72
2022/07/18 03:05:04;;;;;;;8.57;6.22;;;;;;;14.43;74.43;102249.53;4955959;28;20101;-72
2022/07/18 03:07:30;;;;;;;8.30;5.80;;;;;;;14.33;74.78;102247.44;4972532;28;20085;-71
2022/07/18 03:09:56;;;;;;;9.13;6.53;;;;;;;14.32;74.55;102239.59;4973492;28;20027;-72
2022/07/18 03:12:21;;;;;;;11.82;6.20;;;;;;;14.28;74.65;102241.59;4972708;28;20109;-71
2022/07/18 03:14:46;;;;;;;7.03;5.72;;;;;;;14.29;74.58;102234.50;4972514;28;20027;-73
2022/07/18 03:17:12;;;;;;;9.27;6.10;;;;;;;14.29;74.49;102227.41;4955359;28;20086;-72
2022/07/18 03:19:37;;;;;;;8.45;6.00;;;;;;;14.22;75.07;102226.13;4955304;28;20027;-72
2022/07/18 03:22:04;;;;;;;7.53;5.45;;;;;;;14.25;75.39;102214.50;4955120;28;20030;-72
2022/07/18 03:24:29;;;;;;;9.40;5.78;;;;;;;14.24;75.08;102216.28;4972601;28;20486;-72
2022/07/18 03:26:55;;;;;;;10.05;5.85;;;;;;;14.20;74.94;102214.81;4972483;28;20112;-72
2022/07/18 03:29:21;;;;;;;14.15;6.25;;;;;;;14.17;75.38;102211.50;4970771;28;20074;-72
2022/07/18 03:31:46;;;;;;;11.23;6.60;;;;;;;14.09;75.86;102210.25;4971064;28;20026;-72
2022/07/18 03:34:11;;;;;;;9.32;5.85;;;;;;;14.16;76.00;102215.97;4972148;28;20128;-73
2022/07/18 03:36:37;;;;;;;8.25;5.75;;;;;;;14.08;76.01;102208.53;4971181;28;20031;-73
2022/07/18 03:39:03;;;;;;;11.48;6.75;;;;;;;14.06;76.49;102213.09;4936277;29;20031;-72
2022/07/18 03:41:29;;;;;;;10.05;6.35;;;;;;;14.07;75.80;102208.66;4951723;29;20035;-72
2022/07/18 03:43:54;;;;;;;11.27;6.60;;;;;;;13.96;76.49;102197.91;4953543;29;20081;-72
2022/07/18 03:46:20;;;;;;;9.10;6.00;;;;;;;14.02;76.74;102210.75;4952356;29;20023;-72
2022/07/18 03:48:45;;;;;;;9.00;6.00;;;;;;;14.03;76.56;102205.34;4952820;29;20037;-73
2022/07/18 03:51:10;;;;;;;9.48;5.75;;;;;;;13.97;76.81;102211.03;4953051;29;20042;-72
2022/07/18 03:53:36;;;;;;;10.13;5.80;;;;;;;14.01;76.72;102211.72;4951840;29;20050;-72
2022/07/18 03:56:01;;;;;;;19.23;6.72;;;;;;;14.00;76.77;102209.97;4935395;28;20027;-73
2022/07/18 03:58:26;;;;;;;11.25;6.55;;;;;;;13.99;76.63;102203.00;4971062;28;20109;-72
2022/07/18 04:00:52;;;;;;;9.05;5.97;;;;;;;13.97;76.50;102210.19;4954648;28;20153;-71
2022/07/18 04:03:18;;;;;;;7.93;6.00;;;;;;;14.04;76.67;102200.91;4971172;28;20031;-73
2022/07/18 04:05:43;;;;;;;9.80;5.97;;;;;;;14.06;77.00;102212.25;4972089;28;20034;-73
2022/07/18 04:08:09;;;;;;;9.13;5.93;;;;;;;14.02;77.30;102202.81;4972260;28;20431;-73
2022/07/18 04:10:34;;;;;;;11.55;5.90;;;;;;;14.14;76.63;102211.72;4970838;28;20438;-73
2022/07/18 04:12:59;;;;;;;9.88;5.65;;;;;;;14.14;76.73;102207.28;4972282;28;20022;-72
2022/07/18 04:15:26;;;;;;;11.00;6.15;;;;;;;14.21;76.92;102203.25;4954199;28;20035;-74
2022/07/18 04:17:52;;;;;;;11.27;6.32;;;;;;;14.49;76.04;102207.56;4971721;28;20031;-72
2022/07/18 04:20:18;;;;;;;12.02;6.68;;;;;;;14.96;74.04;102196.31;4971690;28;20167;-73
2022/07/18 04:22:55;;;;;;;11.15;6.55;;;;;;;15.69;71.84;102184.84;4971787;28;20031;-73
2022/07/18 04:25:23;;;;;;;10.23;5.70;;;;;;;15.99;70.26;102192.31;4971585;28;20475;-72
2022/07/18 04:27:50;;;;;;;10.73;5.68;;;;;;;16.07;69.59;102181.16;4972813;28;20456;-73
2022/07/18 04:30:21;;;;;;;12.13;5.90;;;;;;;15.87;70.30;102183.47;4972502;28;20022;-72
2022/07/18 04:32:47;;;;;;;7.88;5.60;;;;;;;15.56;70.36;102176.91;4954843;28;20053;-72
2022/07/18 04:35:12;;;;;;;7.68;5.75;;;;;;;15.56;71.17;102171.59;4972184;28;20105;-72
2022/07/18 04:37:38;;;;;;;7.18;5.55;;;;;;;15.35;72.08;102170.53;4944223;29;20085;-72
2022/07/18 04:40:05;;;;;;;8.98;5.47;;;;;;;15.16;72.56;102175.47;4952851;29;20026;-73
2022/07/18 04:42:31;;;;;;;7.25;5.82;;;;;;;15.25;72.53;102174.81;4952634;29;20039;-72
2022/07/18 04:44:57;;;;;;;8.77;5.68;;;;;;;15.03;73.71;102181.66;4951913;29;20023;-72
2022/07/18 04:47:23;;;;;;;8.68;5.35;;;;;;;14.99;74.31;102174.88;4934601;29;20033;-72
2022/07/18 04:49:48;;;;;;;11.52;5.80;;;;;;;14.91;74.06;102179.88;4953010;29;20114;-73
2022/07/18 04:52:14;;;;;;;10.88;6.00;;;;;;;14.84;74.52;102175.97;4934932;29;20471;-73
2022/07/18 04:54:39;;;;;;;9.68;5.68;;;;;;;14.87;74.86;102180.22;4950901;29;20027;-73
2022/07/18 04:57:04;;;;;;;8.30;5.68;;;;;;;14.88;75.38;102188.06;4943461;28;20019;-73
2022/07/18 04:59:30;;;;;;;14.93;6.03;;;;;;;14.81;74.70;102189.44;4969070;28;20040;-72
2022/07/18 05:01:58;;;;;;;9.10;5.93;;;;;;;14.82;75.19;102191.13;4971976;28;20037;-73
2022/07/18 05:04:23;;;;;;;10.55;6.30;;;;;;;14.93;73.26;102185.91;4971293;28;20035;-73
2022/07/18 05:06:49;;;;;;;13.85;6.05;;;;;;;14.91;73.59;102185.19;4971170;28;20022;-73
2022/07/18 05:09:14;;;;;;;7.20;5.30;;;;;;;15.04;72.36;102178.03;4971762;28;20069;-73
2022/07/18 05:11:39;;;;;;;12.07;5.53;;;;;;;15.10;72.57;102182.06;4971170;28;20046;-72
2022/07/18 05:14:05;;;;;;;9.98;5.90;;;;;;;15.15;72.55;102179.06;4954100;28;20019;-72
2022/07/18 05:16:30;;;;;;;10.32;5.60;;;;;;;15.22;73.82;102180.34;4970872;28;20027;-72
2022/07/18 05:18:56;;;;;;;8.25;5.28;;;;;;;15.27;74.34;102178.22;4971657;28;20050;-71
2022/07/18 05:21:21;;;;;;;11.35;5.60;;;;;;;15.41;71.87;102186.00;4970409;28;20030;-72
2022/07/18 05:23:46;;;;;;;14.43;5.85;;;;;;;15.42;70.93;102182.38;4971306;28;20026;-72
2022/07/18 05:26:12;;;;;;;14.73;6.03;;;;;;;15.48;70.26;102181.09;4971996;28;20043;-72
2022/07/18 05:28:38;;;;;;;11.75;5.60;;;;;;;15.59;70.24;102181.16;4970510;28;20033;-72
2022/07/18 05:31:03;;;;;;;11.30;5.88;;;;;;;15.77;68.62;102181.63;4954298;28;20022;-71
2022/07/18 05:33:29;;;;;;;14.40;5.72;;;;;;;15.91;67.96;102178.78;4970660;28;20117;-73
2022/07/18 05:35:54;;;;;;;12.05;5.47;;;;;;;15.96;68.24;102177.47;4953697;28;20066;-73
2022/07/18 05:38:19;;;;;;;9.52;5.40;;;;;;;16.01;69.43;102187.75;4956162;28;20023;-72
2022/07/18 05:40:45;;;;;;;13.30;5.15;;;;;;;16.14;67.78;102187.69;4953079;28;20435;-72
2022/07/18 05:43:14;;;;;;;12.15;5.75;;;;;;;16.29;66.53;102183.84;4956101;29;20027;-73
2022/07/18 05:45:40;;;;;;;14.10;4.90;;;;;;;16.47;64.96;102184.25;4954802;29;20034;-73
2022/07/18 05:48:06;;;;;;;15.32;5.28;;;;;;;16.62;63.72;102180.38;4954901;29;20536;-72
2022/07/18 05:50:31;;;;;;;16.58;5.20;;;;;;;16.69;63.86;102180.78;4955038;29;20078;-73
2022/07/18 05:52:57;;;;;;;13.30;5.20;;;;;;;16.80;63.39;102189.59;4954929;29;20027;-73
2022/07/18 05:55:23;;;;;;;22.55;5.95;;;;;;;16.97;62.45;102179.44;4953141;28;20066;-74
2022/07/18 05:57:49;;;;;;;17.70;5.32;;;;;;;17.11;61.68;102177.38;4969377;28;20434;-74
2022/07/18 06:00:18;;;;;;;15.70;5.97;;;;;;;17.20;61.52;102173.13;4973211;28;20097;-74
2022/07/18 06:02:44;;;;;;;22.95;6.35;;;;;;;17.30;62.53;102175.91;4973607;28;20029;-74
2022/07/18 06:05:10;;;;;;;32.13;6.70;;;;;;;17.48;61.36;102180.56;4974441;28;20026;-73
2022/07/18 06:07:35;;;;;;;25.50;6.10;;;;;;;17.70;60.02;102173.50;4973817;28;20064;-74
2022/07/18 06:10:00;;;;;;;21.52;5.82;;;;;;;17.85;59.24;102178.41;4973818;28;20042;-74
2022/07/18 06:12:30;;;;;;;15.55;6.00;;;;;;;17.96;59.80;102179.31;4973697;28;20029;-74
2022/07/18 06:14:55;;;;;;;17.13;5.68;;;;;;;17.97;59.91;102181.84;4974387;28;20030;-74
2022/07/18 06:17:21;;;;;;;19.75;6.43;;;;;;;18.14;58.79;102189.28;4973312;28;20494;-71
2022/07/18 06:19:46;;;;;;;17.48;5.72;;;;;;;18.19;59.72;102185.38;4974386;28;20031;-71
2022/07/18 06:22:11;;;;;;;18.17;6.30;;;;;;;18.38;58.68;102170.34;4956951;28;20450;-73
2022/07/18 06:24:37;;;;;;;22.58;6.15;;;;;;;18.51;58.10;102162.16;4973136;28;20114;-72
2022/07/18 06:27:02;;;;;;;15.73;5.78;;;;;;;18.67;56.71;102164.34;4974229;28;20463;-71
2022/07/18 06:29:28;;;;;;;14.70;5.30;;;;;;;18.88;56.36;102158.97;4956259;28;20029;-73
2022/07/18 06:31:53;;;;;;;12.02;5.80;;;;;;;18.96;56.23;102153.78;4940821;28;20027;-71
2022/07/18 06:34:18;;;;;;;10.15;5.03;;;;;;;19.00;55.61;102155.19;4973335;28;20476;-73
2022/07/18 06:36:43;;;;;;;15.30;5.68;;;;;;;19.20;55.04;102146.25;4954428;28;20081;-73
2022/07/18 06:39:11;;;;;;;12.20;4.75;;;;;;;19.25;54.69;102154.72;4954396;29;20070;-73
2022/07/18 06:41:38;;;;;;;13.40;5.25;;;;;;;19.36;54.91;102157.25;4954135;29;20823;-73
2022/07/18 06:44:04;;;;;;;16.27;5.05;;;;;;;19.40;55.34;102147.13;4953806;29;20023;-73
2022/07/18 06:46:29;;;;;;;12.65;4.82;;;;;;;19.56;55.10;102139.44;4937013;29;20392;-73
2022/07/18 06:48:54;;;;;;;15.15;5.05;;;;;;;19.76;54.83;102137.63;4954990;29;20035;-73
2022/07/18 06:51:20;;;;;;;12.45;4.50;;;;;;;19.84;54.70;102140.41;4953015;28;20030;-72
2022/07/18 06:53:46;;;;;;;12.55;4.30;;;;;;;19.90;55.00;102137.16;4954054;29;20041;-72
2022/07/18 06:56:18;;;;;;;12.70;4.30;;;;;;;20.03;54.20;102134.22;4957751;28;20033;-72
2022/07/18 06:58:48;;;;;;;15.73;4.10;;;;;;;20.29;53.82;102134.41;4972646;28;20034;-72
2022/07/18 07:01:14;;;;;;;14.45;4.10;;;;;;;20.53;51.03;102142.81;4975024;28;20055;-71
2022/07/18 07:03:40;;;;;;;11.88;3.95;;;;;;;20.67;50.79;102143.31;4974024;28;20109;-71
2022/07/18 07:06:05;;;;;;;14.38;3.70;;;;;;;20.85;51.11;102141.56;4973758;28;20051;-72
2022/07/18 07:08:30;;;;;;;10.48;4.07;;;;;;;21.09;47.84;102132.97;4975239;28;20085;-72
2022/07/18 07:10:56;;;;;;;17.90;4.05;;;;;;;21.32;49.66;102136.09;4975419;28;20114;-73
2022/07/18 07:13:21;;;;;;;19.08;3.83;;;;;;;21.60;48.23;102137.69;4974540;28;20030;-72
2022/07/18 07:15:46;;;;;;;14.48;3.97;;;;;;;22.00;48.33;102147.03;4974035;28;20022;-72
2022/07/18 07:18:11;;;;;;;10.93;3.42;;;;;;;22.25;45.50;102143.56;4973375;28;20062;-73
2022/07/18 07:20:37;;;;;;;10.40;3.53;;;;;;;22.54;45.58;102148.63;4938571;28;20023;-73
2022/07/18 07:23:07;;;;;;;11.13;3.50;;;;;;;22.88;47.09;102150.47;4973498;28;20368;-72
2022/07/18 07:25:32;;;;;;;10.15;3.10;;;;;;;23.18;44.51;102141.81;4972356;28;20037;-71
2022/07/18 07:27:57;;;;;;;12.25;2.70;;;;;;;23.51;42.67;102142.72;4972875;28;20019;-73
2022/07/18 07:30:23;;;;;;;6.95;3.03;;;;;;;23.78;41.10;102138.06;4972246;28;20471;-73
2022/07/18 07:32:50;;;;;;;10.15;2.88;;;;;;;23.88;42.35;102136.88;4973017;28;20035;-73
2022/07/18 07:35:19;;;;;;;9.80;2.63;;;;;;;24.37;41.71;102140.34;4972344;28;20046;-71
2022/07/18 07:37:51;;;;;;;10.43;2.58;;;;;;;24.35;40.29;102139.69;4962471;28;20121;-73
2022/07/18 07:40:17;;;;;;;6.78;2.22;;;;;;;24.46;39.52;102138.50;4952773;29;20023;-73
2022/07/18 07:42:43;;;;;;;11.27;2.55;;;;;;;24.75;38.93;102135.16;4953323;29;20114;-73
2022/07/18 07:45:09;;;;;;;10.77;2.47;;;;;;;24.83;37.92;102140.53;4936045;29;20081;-73
2022/07/18 07:47:36;;;;;;;11.32;2.53;;;;;;;24.94;39.25;102140.16;4935372;29;20399;-71
2022/07/18 07:50:02;;;;;;;8.02;2.35;;;;;;;25.20;37.61;102126.38;4953873;29;20086;-73
2022/07/18 07:52:28;;;;;;;8.48;2.42;;;;;;;25.46;36.29;102120.63;4952386;29;20657;-73
2022/07/18 07:54:54;;;;;;;6.25;2.05;;;;;;;25.58;37.13;102116.50;4952271;29;20030;-73
2022/07/18 07:57:19;;;;;;;6.88;2.28;;;;;;;25.75;35.46;102114.53;4945787;28;20031;-73
2022/07/18 07:59:45;;;;;;;9.13;1.90;;;;;;;25.93;35.76;102104.25;4954543;28;20337;-73
2022/07/18 08:02:12;;;;;;;7.80;1.98;;;;;;;26.00;35.99;102101.66;4971697;28;20133;-73
2022/07/18 08:04:37;;;;;;;9.32;2.15;;;;;;;26.31;34.37;102103.34;4971315;28;20042;-71
2022/07/18 08:07:03;;;;;;;10.15;2.40;;;;;;;26.34;37.44;102100.31;4972617;28;20033;-73
2022/07/18 08:09:28;;;;;;;9.98;2.53;;;;;;;26.53;34.74;102097.03;4971369;28;20023;-73
2022/07/18 08:11:54;;;;;;;11.82;2.13;;;;;;;26.73;34.06;102097.28;4972542;28;20391;-73
2022/07/18 08:14:19;;;;;;;14.05;2.67;;;;;;;26.81;33.78;102098.00;4972053;28;20125;-73
2022/07/18 08:16:44;;;;;;;9.75;2.20;;;;;;;26.90;35.25;102095.22;4971729;28;20300;-73
2022/07/18 08:19:10;;;;;;;7.10;2.10;;;;;;;27.11;33.60;102084.44;4972494;28;20514;-74
2022/07/18 08:21:35;;;;;;;7.75;2.13;;;;;;;27.19;34.11;102084.31;4971850;28;20464;-73
2022/07/18 08:24:01;;;;;;;14.07;2.28;;;;;;;27.25;33.23;102083.56;4971420;28;20038;-74
2022/07/18 08:26:26;;;;;;;18.95;2.65;;;;;;;27.45;33.77;102075.63;4971537;28;20019;-72
2022/07/18 08:28:52;;;;;;;22.48;3.20;;;;;;;27.52;33.46;102078.38;4972350;28;20026;-75
2022/07/18 08:31:18;;;;;;;13.13;2.63;;;;;;;27.55;33.11;102080.69;4970885;28;20031;-73
2022/07/18 08:33:44;;;;;;;10.27;2.53;;;;;;;27.59;33.06;102081.97;4971897;28;20376;-73
2022/07/18 08:36:10;;;;;;;6.78;2.35;;;;;;;27.61;34.09;102079.91;4972149;28;20020;-73
2022/07/18 08:38:35;;;;;;;10.07;2.20;;;;;;;27.96;34.20;102086.22;4936928;29;20037;-73
2022/07/18 08:41:01;;;;;;;9.30;2.03;;;;;;;27.78;33.64;102089.44;4952926;29;20031;-73
2022/07/18 08:43:26;;;;;;;10.77;2.20;;;;;;;27.77;34.35;102090.47;4952152;29;20038;-72
2022/07/18 08:46:01;;;;;;;7.22;2.35;;;;;;;27.96;34.44;102095.19;4952361;29;20392;-73
2022/07/18 08:48:26;;;;;;;7.00;2.65;;;;;;;27.71;33.56;102092.09;4951840;29;20038;-73
2022/07/18 08:50:52;;;;;;;13.55;2.67;;;;;;;27.79;34.21;102093.81;4951947;29;20030;-72
2022/07/18 08:53:18;;;;;;;13.15;2.50;;;;;;;27.94;35.25;102086.44;4962629;28;20108;-73
2022/07/18 08:55:45;;;;;;;12.77;2.58;;;;;;;28.46;34.41;102090.53;4953145;28;20109;-73
2022/07/18 08:58:12;;;;;;;13.30;2.53;;;;;;;28.38;33.09;102090.69;4970025;28;20031;-73
2022/07/18 09:00:37;;;;;;;8.68;2.70;;;;;;;28.55;33.49;102080.34;4970870;28;20121;-73
2022/07/18 09:03:07;;;;;;;7.20;2.13;;;;;;;28.77;34.53;102081.03;4972031;28;20030;-73
2022/07/18 09:05:33;;;;;;;7.32;2.33;;;;;;;28.83;34.68;102075.66;4970666;28;20023;-73
2022/07/18 09:08:19;;;;;;;8.73;2.10;;;;;;;29.35;34.32;102084.97;4971604;28;20483;-72
2022/07/18 09:11:00;;;;;;;8.45;2.20;;;;;;;29.48;34.20;102078.72;4971844;28;20027;-73
2022/07/18 09:13:38;;;;;;;12.20;2.72;;;;;;;29.20;32.96;102082.44;4970427;28;20038;-74
2022/07/18 09:16:15;;;;;;;12.07;2.17;;;;;;;29.27;35.18;102088.72;4975212;28;20048;-72
2022/07/18 09:18:43;;;;;;;13.18;2.55;;;;;;;29.29;31.89;102086.63;4957939;28;20050;-74
2022/07/18 09:21:12;;;;;;;13.02;2.72;;;;;;;29.44;35.66;102091.03;4976101;28;20022;-70
2022/07/18 09:23:40;;;;;;;6.43;2.30;;;;;;;29.53;31.47;102085.19;4974927;28;20029;-74
2022/07/18 09:26:07;;;;;;;11.82;2.30;;;;;;;29.59;30.73;102086.25;4976975;28;20030;-74
2022/07/18 09:28:53;;;;;;;9.20;2.35;;;;;;;29.83;34.18;102090.19;4974896;28;20467;-74
2022/07/18 09:31:24;;;;;;;10.25;2.13;;;;;;;29.79;32.48;102091.66;4957763;28;20121;-74
2022/07/18 09:33:55;;;;;;;7.82;2.30;;;;;;;29.95;35.77;102092.06;4975140;28;20410;-70
2022/07/18 09:36:20;;;;;;;7.22;2.20;;;;;;;30.37;32.57;102086.34;4975635;28;20034;-72
2022/07/18 09:38:46;;;;;;;8.43;2.10;;;;;;;30.49;30.43;102088.19;4957615;28;20031;-72
2022/07/18 09:41:11;;;;;;;10.45;2.35;;;;;;;30.27;30.67;102086.78;4955864;29;20391;-72
2022/07/18 09:43:38;;;;;;;4.35;2.15;;;;;;;30.36;34.86;102093.66;4955809;29;20075;-72
2022/07/18 09:46:05;;;;;;;3.70;1.90;;;;;;;30.13;31.48;102096.88;4955577;29;20027;-72
2022/07/18 09:48:31;;;;;;;10.27;2.10;;;;;;;30.53;32.77;102089.44;4954486;29;20035;-73
2022/07/18 09:51:06;;;;;;;7.30;2.03;;;;;;;30.65;32.27;102086.06;4955700;29;20657;-71
2022/07/18 09:53:35;;;;;;;6.00;2.00;;;;;;;30.58;31.82;102079.78;4954377;29;20023;-73
2022/07/18 09:56:06;;;;;;;6.82;2.38;;;;;;;30.55;31.82;102083.78;4937182;28;20034;-73
2022/07/18 09:58:36;;;;;;;6.88;2.08;;;;;;;30.68;32.27;102077.47;4973424;28;20538;-73
2022/07/18 10:01:04;;;;;;;4.43;2.08;;;;;;;30.83;32.12;102080.75;4973588;28;20075;-71
2022/07/18 10:03:29;;;;;;;6.40;1.88;;;;;;;30.87;32.49;102076.53;4974184;28;20027;-73
2022/07/18 10:05:59;;;;;;;5.28;1.90;;;;;;;31.29;32.82;102074.19;4974718;28;20395;-73
2022/07/18 10:08:27;;;;;;;10.63;2.08;;;;;;;31.31;30.49;102069.38;4973406;28;20035;-73
2022/07/18 10:10:54;;;;;;;4.38;1.90;;;;;;;31.40;29.63;102068.03;4974705;28;20023;-73
2022/07/18 10:13:21;;;;;;;10.25;2.03;;;;;;;31.61;31.83;102067.63;4974057;28;20502;-72
2022/07/18 10:15:50;;;;;;;4.07;1.90;;;;;;;31.57;31.60;102069.13;4973720;28;20105;-72
2022/07/18 10:18:21;;;;;;;6.57;2.00;;;;;;;31.68;31.32;102071.16;4974471;28;20779;-70
2022/07/18 10:20:58;;;;;;;7.47;1.83;;;;;;;31.91;31.88;102066.97;4974573;28;20034;-72
2022/07/18 10:23:29;;;;;;;8.20;1.92;;;;;;;32.01;29.94;102059.09;4973157;28;20080;-72
2022/07/18 10:26:14;;;;;;;5.05;2.10;;;;;;;32.26;31.57;102069.97;4973593;28;20038;-72
2022/07/18 10:28:55;;;;;;;4.78;2.05;;;;;;;32.44;31.87;102064.50;4974167;28;20031;-72
2022/07/18 10:31:25;;;;;;;8.07;1.95;;;;;;;32.61;29.40;102067.41;4973213;28;20053;-73
2022/07/18 10:33:53;;;;;;;9.82;2.10;;;;;;;32.66;29.03;102070.28;4974321;28;20073;-73
2022/07/18 10:36:20;;;;;;;6.55;1.60;;;;;;;32.54;26.62;102063.97;4965247;28;20034;-73
2022/07/18 10:39:05;;;;;;;3.80;1.80;;;;;;;32.56;30.56;102059.94;4955960;28;20035;-73
2022/07/18 10:41:31;;;;;;;5.32;1.70;;;;;;;32.77;29.02;102063.22;4954166;29;20399;-73
2022/07/18 10:43:57;;;;;;;2.67;1.60;;;;;;;32.64;28.71;102058.78;4954309;29;20055;-73
2022/07/18 10:46:22;;;;;;;5.07;1.55;;;;;;;32.71;27.24;102056.78;4937090;29;20117;-73
2022/07/18 10:48:52;;;;;;;6.15;1.60;;;;;;;32.87;26.24;102055.34;4955020;29;20066;-72
2022/07/18 10:51:18;;;;;;;8.73;1.88;;;;;;;32.73;25.60;102049.22;4953362;29;20027;-73
2022/07/18 10:54:01;;;;;;;6.40;1.80;;;;;;;32.65;28.23;102057.72;4953932;29;20035;-73
2022/07/18 10:56:35;;;;;;;6.35;2.35;;;;;;;32.79;28.13;102059.22;4957414;28;20023;-72
2022/07/18 10:59:18;;;;;;;5.80;1.45;;;;;;;32.90;27.52;102047.53;4971697;28;20490;-72
2022/07/18 11:01:52;;;;;;;5.30;1.40;;;;;;;32.97;27.74;102048.25;4973528;28;20451;-72
2022/07/18 11:04:24;;;;;;;2.30;1.67;;;;;;;32.61;25.64;102059.25;4972619;28;20031;-72
2022/07/18 11:07:11;;;;;;;4.22;1.80;;;;;;;32.37;25.78;102053.66;4973635;28;20062;-72
2022/07/18 11:09:42;;;;;;;3.33;1.50;;;;;;;32.14;25.31;102048.06;4973074;28;20035;-74
2022/07/18 11:12:21;;;;;;;6.97;1.67;;;;;;;32.36;25.91;102045.72;4973087;28;20342;-72
2022/07/18 11:15:10;;;;;;;6.30;1.80;;;;;;;32.64;26.21;102047.88;4973323;28;20052;-72
2022/07/18 11:17:51;;;;;;;4.38;1.63;;;;;;;32.49;26.05;102036.56;4972728;28;20423;-73
2022/07/18 11:20:25;;;;;;;3.92;1.75;;;;;;;32.62;26.03;102042.66;4972064;28;20034;-75
2022/07/18 11:22:51;;;;;;;5.55;1.75;;;;;;;32.72;27.32;102033.91;4973264;28;20490;-70
2022/07/18 11:25:17;;;;;;;6.82;1.90;;;;;;;32.81;25.94;102031.72;4972881;28;20041;-74